sensor_id;sensor_type;location;lat;lon;timestamp;P1;durP1;ratioP1;P2;durP2;ratioP2
30010;SDS011;16851;53.564;8.112;2022-07-04T00:04:26;6.63;;;4.13;;
30010;SDS011;16851;53.564;8.112;2022-07-04T00:09:31;7.90;;;4.65;;
30010;SDS011;16851;53.564;8.112;2022-07-04T00:14:33;7.20;;;4.00;;
30010;SDS011;16851;53.564;8.112;2022-07-04T00:19:46;8.32;;;3.35;;
30010;SDS011;16851;53.564;8.112;2022-07-04T00:24:50;9.25;;;3.88;;
30010;SDS011;16851;53.564;8.112;2022-07-04T00:29:52;10.13;;;4.18;;
30010;SDS011;16851;53.564;8.112;2022-07-04T00:35:00;14.93;;;5.57;;
30010;SDS011;16851;53.564;8.112;2022-07-04T00:40:03;8.35;;;4.05;;
30010;SDS011;16851;53.564;8.112;2022-07-04T00:45:12;6.93;;;3.10;;
30010;SDS011;16851;53.564;8.112;2022-07-04T00:50:17;7.18;;;3.22;;
30010;SDS011;16851;53.564;8.112;2022-07-04T00:55:18;7.88;;;3.42;;
30010;SDS011;16851;53.564;8.112;2022-07-04T01:00:21;11.32;;;3.63;;
30010;SDS011;16851;53.564;8.112;2022-07-04T01:05:27;9.93;;;2.92;;
30010;SDS011;16851;53.564;8.112;2022-07-04T01:10:28;4.88;;;2.67;;
30010;SDS011;16851;53.564;8.112;2022-07-04T01:15:33;6.63;;;3.00;;
30010;SDS011;16851;53.564;8.112;2022-07-04T01:20:35;8.35;;;3.03;;
30010;SDS011;16851;53.564;8.112;2022-07-04T01:25:45;7.30;;;3.30;;
30010;SDS011;16851;53.564;8.112;2022-07-04T01:30:48;11.55;;;4.85;;
30010;SDS011;16851;53.564;8.112;2022-07-04T01:35:53;9.93;;;3.78;;
30010;SDS011;16851;53.564;8.112;2022-07-04T01:40:58;9.23;;;4.00;;
30010;SDS011;16851;53.564;8.112;2022-07-04T01:45:59;9.85;;;3.42;;
30010;SDS011;16851;53.564;8.112;2022-07-04T01:51:01;4.95;;;3.78;;
30010;SDS011;16851;53.564;8.112;2022-07-04T01:56:03;9.48;;;4.82;;
30010;SDS011;16851;53.564;8.112;2022-07-04T02:01:05;9.15;;;3.80;;
30010;SDS011;16851;53.564;8.112;2022-07-04T02:06:27;8.35;;;4.28;;
30010;SDS011;16851;53.564;8.112;2022-07-04T02:11:32;12.68;;;4.70;;
30010;SDS011;16851;53.564;8.112;2022-07-04T02:16:57;13.77;;;4.28;;
30010;SDS011;16851;53.564;8.112;2022-07-04T02:21:59;5.55;;;3.75;;
30010;SDS011;16851;53.564;8.112;2022-07-04T02:27:01;10.02;;;4.15;;
30010;SDS011;16851;53.564;8.112;2022-07-04T02:32:05;7.88;;;4.40;;
30010;SDS011;16851;53.564;8.112;2022-07-04T02:37:07;8.50;;;4.28;;
30010;SDS011;16851;53.564;8.112;2022-07-04T02:42:13;8.38;;;4.95;;
30010;SDS011;16851;53.564;8.112;2022-07-04T02:47:15;9.85;;;4.18;;
30010;SDS011;16851;53.564;8.112;2022-07-04T02:52:20;11.18;;;4.63;;
30010;SDS011;16851;53.564;8.112;2022-07-04T02:57:24;9.55;;;5.47;;
30010;SDS011;16851;53.564;8.112;2022-07-04T03:02:28;8.00;;;4.65;;
30010;SDS011;16851;53.564;8.112;2022-07-04T03:07:32;10.68;;;5.65;;
30010;SDS011;16851;53.564;8.112;2022-07-04T03:12:37;7.97;;;5.35;;
30010;SDS011;16851;53.564;8.112;2022-07-04T03:17:44;8.30;;;5.75;;
30010;SDS011;16851;53.564;8.112;2022-07-04T03:22:48;11.18;;;5.00;;
30010;SDS011;16851;53.564;8.112;2022-07-04T03:27:50;10.90;;;4.97;;
30010;SDS011;16851;53.564;8.112;2022-07-04T03:32:54;9.57;;;5.25;;
30010;SDS011;16851;53.564;8.112;2022-07-04T03:37:56;10.30;;;5.72;;
30010;SDS011;16851;53.564;8.112;2022-07-04T03:42:58;9.63;;;5.63;;
30010;SDS011;16851;53.564;8.112;2022-07-04T03:48:03;12.52;;;5.85;;
30010;SDS011;16851;53.564;8.112;2022-07-04T03:53:05;11.65;;;6.07;;
30010;SDS011;16851;53.564;8.112;2022-07-04T03:58:06;10.63;;;5.43;;
30010;SDS011;16851;53.564;8.112;2022-07-04T04:03:09;10.90;;;5.75;;
30010;SDS011;16851;53.564;8.112;2022-07-04T04:08:31;11.88;;;6.10;;
30010;SDS011;16851;53.564;8.112;2022-07-04T04:13:36;11.90;;;6.32;;
30010;SDS011;16851;53.564;8.112;2022-07-04T04:18:38;11.45;;;6.68;;
30010;SDS011;16851;53.564;8.112;2022-07-04T04:23:41;9.07;;;5.95;;
30010;SDS011;16851;53.564;8.112;2022-07-04T04:28:49;15.55;;;6.57;;
30010;SDS011;16851;53.564;8.112;2022-07-04T04:33:57;12.43;;;6.07;;
30010;SDS011;16851;53.564;8.112;2022-07-04T04:39:01;13.07;;;6.10;;
30010;SDS011;16851;53.564;8.112;2022-07-04T04:44:03;10.93;;;5.90;;
30010;SDS011;16851;53.564;8.112;2022-07-04T04:49:11;13.20;;;6.65;;
30010;SDS011;16851;53.564;8.112;2022-07-04T04:54:19;12.82;;;6.50;;
30010;SDS011;16851;53.564;8.112;2022-07-04T04:59:25;10.77;;;5.95;;
30010;SDS011;16851;53.564;8.112;2022-07-04T05:04:30;11.40;;;6.93;;
30010;SDS011;16851;53.564;8.112;2022-07-04T05:09:32;12.27;;;7.15;;
30010;SDS011;16851;53.564;8.112;2022-07-04T05:14:35;11.70;;;6.53;;
30010;SDS011;16851;53.564;8.112;2022-07-04T05:19:37;11.45;;;6.70;;
30010;SDS011;16851;53.564;8.112;2022-07-04T05:24:40;12.75;;;7.00;;
30010;SDS011;16851;53.564;8.112;2022-07-04T05:29:43;12.48;;;6.90;;
30010;SDS011;16851;53.564;8.112;2022-07-04T05:34:47;8.70;;;6.68;;
30010;SDS011;16851;53.564;8.112;2022-07-04T05:39:49;10.02;;;6.47;;
30010;SDS011;16851;53.564;8.112;2022-07-04T05:44:53;10.43;;;7.13;;
30010;SDS011;16851;53.564;8.112;2022-07-04T05:49:55;13.50;;;6.35;;
30010;SDS011;16851;53.564;8.112;2022-07-04T05:55:00;12.20;;;6.28;;
30010;SDS011;16851;53.564;8.112;2022-07-04T06:00:03;12.95;;;5.65;;
30010;SDS011;16851;53.564;8.112;2022-07-04T06:05:06;10.65;;;5.82;;
30010;SDS011;16851;53.564;8.112;2022-07-04T06:10:11;12.98;;;5.53;;
30010;SDS011;16851;53.564;8.112;2022-07-04T06:15:13;13.85;;;5.20;;
30010;SDS011;16851;53.564;8.112;2022-07-04T06:20:17;10.05;;;6.10;;
30010;SDS011;16851;53.564;8.112;2022-07-04T06:25:23;10.13;;;5.25;;
30010;SDS011;16851;53.564;8.112;2022-07-04T06:30:27;10.55;;;5.07;;
30010;SDS011;16851;53.564;8.112;2022-07-04T06:35:31;9.95;;;5.05;;
30010;SDS011;16851;53.564;8.112;2022-07-04T06:40:56;7.13;;;3.92;;
30010;SDS011;16851;53.564;8.112;2022-07-04T06:45:58;8.77;;;4.00;;
30010;SDS011;16851;53.564;8.112;2022-07-04T06:51:00;6.55;;;3.33;;
30010;SDS011;16851;53.564;8.112;2022-07-04T06:56:03;8.90;;;2.70;;
30010;SDS011;16851;53.564;8.112;2022-07-04T07:01:10;8.02;;;2.75;;
30010;SDS011;16851;53.564;8.112;2022-07-04T07:06:12;12.77;;;3.05;;
30010;SDS011;16851;53.564;8.112;2022-07-04T07:11:14;8.20;;;2.40;;
30010;SDS011;16851;53.564;8.112;2022-07-04T07:16:20;9.10;;;3.10;;
30010;SDS011;16851;53.564;8.112;2022-07-04T07:21:22;8.75;;;2.63;;
30010;SDS011;16851;53.564;8.112;2022-07-04T07:26:24;7.45;;;2.63;;
30010;SDS011;16851;53.564;8.112;2022-07-04T07:31:28;8.75;;;2.95;;
30010;SDS011;16851;53.564;8.112;2022-07-04T07:36:32;7.72;;;2.30;;
30010;SDS011;16851;53.564;8.112;2022-07-04T07:41:36;11.85;;;2.05;;
30010;SDS011;16851;53.564;8.112;2022-07-04T07:46:41;8.60;;;2.30;;
30010;SDS011;16851;53.564;8.112;2022-07-04T07:51:46;6.45;;;1.80;;
30010;SDS011;16851;53.564;8.112;2022-07-04T07:56:59;3.10;;;1.70;;
30010;SDS011;16851;53.564;8.112;2022-07-04T08:02:04;7.15;;;2.33;;
30010;SDS011;16851;53.564;8.112;2022-07-04T08:07:11;3.80;;;1.65;;
30010;SDS011;16851;53.564;8.112;2022-07-04T08:12:24;4.80;;;1.83;;
30010;SDS011;16851;53.564;8.112;2022-07-04T08:17:29;8.43;;;1.90;;
30010;SDS011;16851;53.564;8.112;2022-07-04T08:22:33;3.45;;;1.48;;
30010;SDS011;16851;53.564;8.112;2022-07-04T08:27:37;6.55;;;1.95;;
30010;SDS011;16851;53.564;8.112;2022-07-04T08:32:41;5.75;;;1.35;;
30010;SDS011;16851;53.564;8.112;2022-07-04T08:37:44;8.30;;;1.40;;
30010;SDS011;16851;53.564;8.112;2022-07-04T08:42:53;7.07;;;1.50;;
30010;SDS011;16851;53.564;8.112;2022-07-04T08:48:01;8.00;;;1.40;;
30010;SDS011;16851;53.564;8.112;2022-07-04T08:53:17;4.07;;;1.45;;
30010;SDS011;16851;53.564;8.112;2022-07-04T08:58:22;7.95;;;1.17;;
30010;SDS011;16851;53.564;8.112;2022-07-04T09:03:28;6.45;;;1.63;;
30010;SDS011;16851;53.564;8.112;2022-07-04T09:08:33;4.88;;;1.77;;
30010;SDS011;16851;53.564;8.112;2022-07-04T09:13:38;4.63;;;1.50;;
30010;SDS011;16851;53.564;8.112;2022-07-04T09:18:43;8.60;;;1.60;;
30010;SDS011;16851;53.564;8.112;2022-07-04T09:23:45;4.18;;;1.10;;
30010;SDS011;16851;53.564;8.112;2022-07-04T09:33:54;7.30;;;1.15;;
30010;SDS011;16851;53.564;8.112;2022-07-04T09:44:16;5.57;;;1.48;;
30010;SDS011;16851;53.564;8.112;2022-07-04T09:49:18;6.40;;;1.20;;
30010;SDS011;16851;53.564;8.112;2022-07-04T09:54:22;7.43;;;1.35;;
30010;SDS011;16851;53.564;8.112;2022-07-04T09:59:28;3.97;;;1.05;;
30010;SDS011;16851;53.564;8.112;2022-07-04T10:04:50;8.90;;;1.52;;
30010;SDS011;16851;53.564;8.112;2022-07-04T10:09:53;4.13;;;1.20;;
30010;SDS011;16851;53.564;8.112;2022-07-04T10:14:55;4.40;;;1.20;;
30010;SDS011;16851;53.564;8.112;2022-07-04T10:19:59;5.07;;;1.23;;
30010;SDS011;16851;53.564;8.112;2022-07-04T10:25:06;6.05;;;1.73;;
30010;SDS011;16851;53.564;8.112;2022-07-04T10:30:13;6.32;;;1.10;;
30010;SDS011;16851;53.564;8.112;2022-07-04T10:35:17;4.53;;;1.35;;
30010;SDS011;16851;53.564;8.112;2022-07-04T10:45:46;3.75;;;1.20;;
30010;SDS011;16851;53.564;8.112;2022-07-04T11:01:23;5.13;;;1.52;;
30010;SDS011;16851;53.564;8.112;2022-07-04T11:11:54;4.53;;;1.48;;
30010;SDS011;16851;53.564;8.112;2022-07-04T11:16:59;3.85;;;1.33;;
30010;SDS011;16851;53.564;8.112;2022-07-04T11:22:05;5.28;;;1.17;;
30010;SDS011;16851;53.564;8.112;2022-07-04T11:27:13;2.70;;;0.90;;
30010;SDS011;16851;53.564;8.112;2022-07-04T11:32:17;3.80;;;1.42;;
30010;SDS011;16851;53.564;8.112;2022-07-04T11:37:21;3.55;;;1.30;;
30010;SDS011;16851;53.564;8.112;2022-07-04T11:42:25;5.38;;;1.50;;
30010;SDS011;16851;53.564;8.112;2022-07-04T11:47:47;4.43;;;1.40;;
30010;SDS011;16851;53.564;8.112;2022-07-04T11:52:51;4.97;;;1.50;;
30010;SDS011;16851;53.564;8.112;2022-07-04T11:58:17;6.18;;;1.42;;
30010;SDS011;16851;53.564;8.112;2022-07-04T12:03:25;4.20;;;1.20;;
30010;SDS011;16851;53.564;8.112;2022-07-04T12:08:34;1.73;;;0.85;;
30010;SDS011;16851;53.564;8.112;2022-07-04T12:13:35;4.97;;;1.00;;
30010;SDS011;16851;53.564;8.112;2022-07-04T12:18:40;4.25;;;0.80;;
30010;SDS011;16851;53.564;8.112;2022-07-04T12:23:49;2.88;;;0.88;;
30010;SDS011;16851;53.564;8.112;2022-07-04T12:29:07;2.85;;;0.90;;
30010;SDS011;16851;53.564;8.112;2022-07-04T12:34:14;2.65;;;0.80;;
30010;SDS011;16851;53.564;8.112;2022-07-04T12:39:29;3.00;;;0.85;;
30010;SDS011;16851;53.564;8.112;2022-07-04T12:44:36;3.25;;;0.90;;
30010;SDS011;16851;53.564;8.112;2022-07-04T12:49:45;4.32;;;1.10;;
30010;SDS011;16851;53.564;8.112;2022-07-04T12:55:04;6.00;;;0.75;;
30010;SDS011;16851;53.564;8.112;2022-07-04T13:00:09;5.10;;;1.00;;
30010;SDS011;16851;53.564;8.112;2022-07-04T13:05:37;4.75;;;0.88;;
30010;SDS011;16851;53.564;8.112;2022-07-04T13:10:39;3.85;;;0.68;;
30010;SDS011;16851;53.564;8.112;2022-07-04T13:15:47;5.07;;;1.05;;
30010;SDS011;16851;53.564;8.112;2022-07-04T13:20:51;3.40;;;0.90;;
30010;SDS011;16851;53.564;8.112;2022-07-04T13:25:55;5.90;;;1.20;;
30010;SDS011;16851;53.564;8.112;2022-07-04T13:30:57;11.98;;;1.40;;
30010;SDS011;16851;53.564;8.112;2022-07-04T13:36:00;4.00;;;1.00;;
30010;SDS011;16851;53.564;8.112;2022-07-04T13:41:06;5.68;;;1.00;;
30010;SDS011;16851;53.564;8.112;2022-07-04T13:46:12;5.57;;;1.15;;
30010;SDS011;16851;53.564;8.112;2022-07-04T13:51:17;5.30;;;0.90;;
30010;SDS011;16851;53.564;8.112;2022-07-04T13:56:22;5.05;;;0.90;;
30010;SDS011;16851;53.564;8.112;2022-07-04T14:01:23;5.30;;;1.08;;
30010;SDS011;16851;53.564;8.112;2022-07-04T14:06:28;5.50;;;1.15;;
30010;SDS011;16851;53.564;8.112;2022-07-04T14:11:35;6.18;;;1.27;;
30010;SDS011;16851;53.564;8.112;2022-07-04T14:16:41;7.22;;;0.90;;
30010;SDS011;16851;53.564;8.112;2022-07-04T14:21:43;6.18;;;1.35;;
30010;SDS011;16851;53.564;8.112;2022-07-04T14:26:54;3.50;;;0.93;;
30010;SDS011;16851;53.564;8.112;2022-07-04T14:31:56;6.32;;;1.13;;
30010;SDS011;16851;53.564;8.112;2022-07-04T14:36:57;8.80;;;1.20;;
30010;SDS011;16851;53.564;8.112;2022-07-04T14:41:59;6.13;;;1.00;;
30010;SDS011;16851;53.564;8.112;2022-07-04T14:47:03;7.70;;;1.13;;
30010;SDS011;16851;53.564;8.112;2022-07-04T14:52:14;4.28;;;1.05;;
30010;SDS011;16851;53.564;8.112;2022-07-04T14:57:16;3.33;;;0.80;;
30010;SDS011;16851;53.564;8.112;2022-07-04T15:02:18;5.63;;;1.17;;
30010;SDS011;16851;53.564;8.112;2022-07-04T15:07:22;6.03;;;0.88;;
30010;SDS011;16851;53.564;8.112;2022-07-04T15:12:27;3.20;;;0.95;;
30010;SDS011;16851;53.564;8.112;2022-07-04T15:17:32;7.30;;;1.02;;
30010;SDS011;16851;53.564;8.112;2022-07-04T15:22:34;8.45;;;1.00;;
30010;SDS011;16851;53.564;8.112;2022-07-04T15:27:57;7.55;;;1.38;;
30010;SDS011;16851;53.564;8.112;2022-07-04T15:32:59;7.60;;;1.30;;
30010;SDS011;16851;53.564;8.112;2022-07-04T15:38:00;8.45;;;1.02;;
30010;SDS011;16851;53.564;8.112;2022-07-04T15:43:05;6.50;;;0.60;;
30010;SDS011;16851;53.564;8.112;2022-07-04T15:48:13;7.22;;;1.20;;
30010;SDS011;16851;53.564;8.112;2022-07-04T15:53:15;7.82;;;1.30;;
30010;SDS011;16851;53.564;8.112;2022-07-04T15:58:20;6.25;;;0.90;;
30010;SDS011;16851;53.564;8.112;2022-07-04T16:03:24;9.63;;;1.10;;
30010;SDS011;16851;53.564;8.112;2022-07-04T16:08:30;5.30;;;0.75;;
30010;SDS011;16851;53.564;8.112;2022-07-04T16:13:34;3.20;;;0.68;;
30010;SDS011;16851;53.564;8.112;2022-07-04T16:18:38;3.05;;;0.90;;
30010;SDS011;16851;53.564;8.112;2022-07-04T16:23:40;2.92;;;0.57;;
30010;SDS011;16851;53.564;8.112;2022-07-04T16:28:48;3.50;;;0.80;;
30010;SDS011;16851;53.564;8.112;2022-07-04T16:33:50;8.88;;;0.93;;
30010;SDS011;16851;53.564;8.112;2022-07-04T16:38:52;4.50;;;0.73;;
30010;SDS011;16851;53.564;8.112;2022-07-04T16:43:56;8.48;;;1.17;;
30010;SDS011;16851;53.564;8.112;2022-07-04T16:48:59;6.80;;;1.05;;
30010;SDS011;16851;53.564;8.112;2022-07-04T16:54:23;4.00;;;1.10;;
30010;SDS011;16851;53.564;8.112;2022-07-04T16:59:28;3.72;;;1.10;;
30010;SDS011;16851;53.564;8.112;2022-07-04T17:04:33;4.22;;;0.75;;
30010;SDS011;16851;53.564;8.112;2022-07-04T17:09:35;5.78;;;0.60;;
30010;SDS011;16851;53.564;8.112;2022-07-04T17:14:40;4.05;;;0.60;;
30010;SDS011;16851;53.564;8.112;2022-07-04T17:19:47;2.75;;;0.75;;
30010;SDS011;16851;53.564;8.112;2022-07-04T17:24:52;5.50;;;0.80;;
30010;SDS011;16851;53.564;8.112;2022-07-04T17:29:56;4.97;;;0.85;;
30010;SDS011;16851;53.564;8.112;2022-07-04T17:34:58;5.28;;;0.90;;
30010;SDS011;16851;53.564;8.112;2022-07-04T17:40:01;1.55;;;0.50;;
30010;SDS011;16851;53.564;8.112;2022-07-04T17:45:10;4.72;;;0.77;;
30010;SDS011;16851;53.564;8.112;2022-07-04T17:50:14;4.82;;;0.80;;
30010;SDS011;16851;53.564;8.112;2022-07-04T17:55:19;3.90;;;0.68;;
30010;SDS011;16851;53.564;8.112;2022-07-04T18:00:24;4.97;;;0.68;;
30010;SDS011;16851;53.564;8.112;2022-07-04T18:05:26;4.95;;;1.00;;
30010;SDS011;16851;53.564;8.112;2022-07-04T18:10:28;4.88;;;0.93;;
30010;SDS011;16851;53.564;8.112;2022-07-04T18:15:34;2.10;;;0.60;;
30010;SDS011;16851;53.564;8.112;2022-07-04T18:20:44;2.22;;;0.65;;
30010;SDS011;16851;53.564;8.112;2022-07-04T18:25:49;5.60;;;0.85;;
30010;SDS011;16851;53.564;8.112;2022-07-04T18:31:00;2.92;;;0.47;;
30010;SDS011;16851;53.564;8.112;2022-07-04T18:36:06;4.47;;;0.82;;
30010;SDS011;16851;53.564;8.112;2022-07-04T18:41:08;2.85;;;0.90;;
30010;SDS011;16851;53.564;8.112;2022-07-04T18:46:31;6.30;;;0.80;;
30010;SDS011;16851;53.564;8.112;2022-07-04T18:51:33;2.20;;;0.60;;
30010;SDS011;16851;53.564;8.112;2022-07-04T18:56:39;3.65;;;0.77;;
30010;SDS011;16851;53.564;8.112;2022-07-04T19:01:41;3.13;;;0.70;;
30010;SDS011;16851;53.564;8.112;2022-07-04T19:06:47;4.43;;;0.80;;
30010;SDS011;16851;53.564;8.112;2022-07-04T19:11:49;1.67;;;0.57;;
30010;SDS011;16851;53.564;8.112;2022-07-04T19:16:57;1.50;;;0.80;;
30010;SDS011;16851;53.564;8.112;2022-07-04T19:22:01;3.05;;;1.08;;
30010;SDS011;16851;53.564;8.112;2022-07-04T19:27:07;2.65;;;0.80;;
30010;SDS011;16851;53.564;8.112;2022-07-04T19:32:09;2.03;;;0.90;;
30010;SDS011;16851;53.564;8.112;2022-07-04T19:37:14;2.63;;;1.02;;
30010;SDS011;16851;53.564;8.112;2022-07-04T19:42:16;2.70;;;0.88;;
30010;SDS011;16851;53.564;8.112;2022-07-04T19:47:23;3.35;;;0.90;;
30010;SDS011;16851;53.564;8.112;2022-07-04T19:52:31;5.07;;;0.90;;
30010;SDS011;16851;53.564;8.112;2022-07-04T19:57:33;1.40;;;0.65;;
30010;SDS011;16851;53.564;8.112;2022-07-04T20:02:37;3.53;;;0.95;;
30010;SDS011;16851;53.564;8.112;2022-07-04T20:07:42;2.17;;;0.68;;
30010;SDS011;16851;53.564;8.112;2022-07-04T20:12:47;4.18;;;1.15;;
30010;SDS011;16851;53.564;8.112;2022-07-04T20:17:51;2.63;;;0.90;;
30010;SDS011;16851;53.564;8.112;2022-07-04T20:22:57;2.72;;;0.90;;
30010;SDS011;16851;53.564;8.112;2022-07-04T20:28:05;4.18;;;1.10;;
30010;SDS011;16851;53.564;8.112;2022-07-04T20:33:07;3.20;;;1.00;;
30010;SDS011;16851;53.564;8.112;2022-07-04T20:38:10;3.67;;;1.10;;
30010;SDS011;16851;53.564;8.112;2022-07-04T20:43:17;3.95;;;1.30;;
30010;SDS011;16851;53.564;8.112;2022-07-04T20:48:23;5.65;;;1.23;;
30010;SDS011;16851;53.564;8.112;2022-07-04T20:53:27;3.80;;;1.17;;
30010;SDS011;16851;53.564;8.112;2022-07-04T20:58:29;3.70;;;1.20;;
30010;SDS011;16851;53.564;8.112;2022-07-04T21:03:35;3.75;;;1.00;;
30010;SDS011;16851;53.564;8.112;2022-07-04T21:08:38;4.55;;;1.35;;
30010;SDS011;16851;53.564;8.112;2022-07-04T21:13:39;4.40;;;1.20;;
30010;SDS011;16851;53.564;8.112;2022-07-04T21:18:44;3.28;;;1.08;;
30010;SDS011;16851;53.564;8.112;2022-07-04T21:23:45;3.22;;;1.20;;
30010;SDS011;16851;53.564;8.112;2022-07-04T21:28:52;2.60;;;1.30;;
30010;SDS011;16851;53.564;8.112;2022-07-04T21:33:56;3.45;;;1.30;;
30010;SDS011;16851;53.564;8.112;2022-07-04T21:38:58;2.83;;;1.30;;
30010;SDS011;16851;53.564;8.112;2022-07-04T21:44:03;6.38;;;1.70;;
30010;SDS011;16851;53.564;8.112;2022-07-04T21:49:05;3.42;;;1.50;;
30010;SDS011;16851;53.564;8.112;2022-07-04T21:54:06;4.75;;;1.35;;
30010;SDS011;16851;53.564;8.112;2022-07-04T21:59:11;5.18;;;1.40;;
30010;SDS011;16851;53.564;8.112;2022-07-04T22:04:14;6.57;;;1.38;;
30010;SDS011;16851;53.564;8.112;2022-07-04T22:09:15;5.85;;;1.42;;
30010;SDS011;16851;53.564;8.112;2022-07-04T22:14:22;4.57;;;1.50;;
30010;SDS011;16851;53.564;8.112;2022-07-04T22:19:27;6.93;;;1.60;;
30010;SDS011;16851;53.564;8.112;2022-07-04T22:24:29;8.65;;;1.70;;
30010;SDS011;16851;53.564;8.112;2022-07-04T22:29:31;4.18;;;1.67;;
30010;SDS011;16851;53.564;8.112;2022-07-04T22:34:36;8.57;;;1.83;;
30010;SDS011;16851;53.564;8.112;2022-07-04T22:39:43;4.43;;;1.67;;
30010;SDS011;16851;53.564;8.112;2022-07-04T22:44:48;6.45;;;1.67;;
30010;SDS011;16851;53.564;8.112;2022-07-04T22:49:49;5.10;;;1.77;;
30010;SDS011;16851;53.564;8.112;2022-07-04T22:54:57;5.53;;;1.75;;
30010;SDS011;16851;53.564;8.112;2022-07-04T23:00:07;6.53;;;2.35;;
30010;SDS011;16851;53.564;8.112;2022-07-04T23:05:14;7.43;;;1.80;;
30010;SDS011;16851;53.564;8.112;2022-07-04T23:10:21;5.97;;;2.17;;
30010;SDS011;16851;53.564;8.112;2022-07-04T23:15:25;6.45;;;2.35;;
30010;SDS011;16851;53.564;8.112;2022-07-04T23:20:33;5.15;;;2.28;;
30010;SDS011;16851;53.564;8.112;2022-07-04T23:25:39;2.75;;;1.77;;
30010;SDS011;16851;53.564;8.112;2022-07-04T23:30:41;4.47;;;2.45;;
30010;SDS011;16851;53.564;8.112;2022-07-04T23:35:43;8.70;;;2.38;;
30010;SDS011;16851;53.564;8.112;2022-07-04T23:40:47;5.10;;;2.22;;
30010;SDS011;16851;53.564;8.112;2022-07-04T23:45:49;4.95;;;2.65;;
30010;SDS011;16851;53.564;8.112;2022-07-04T23:50:55;6.22;;;2.50;;
30010;SDS011;16851;53.564;8.112;2022-07-04T23:55:57;6.95;;;2.97;;
